createdAt,value
2022-12-14T00:00:30.894Z,74.18
2022-12-14T00:03:15.885Z,73.80
2022-12-14T00:05:59.763Z,73.67
2022-12-14T00:08:44.190Z,73.00
2022-12-14T00:11:29.818Z,71.88
2022-12-14T00:17:15.754Z,72.23
2022-12-14T00:19:59.949Z,72.04
2022-12-14T00:22:44.616Z,71.76
2022-12-14T00:25:28.362Z,71.22
2022-12-14T00:28:13.757Z,71.92
2022-12-14T00:31:00.894Z,72.65
2022-12-14T00:33:45.580Z,70.29
2022-12-14T00:36:31.832Z,69.48
2022-12-14T00:39:16.738Z,71.15
2022-12-14T00:42:00.978Z,72.54
2022-12-14T00:44:46.452Z,71.50
2022-12-14T00:47:30.700Z,70.91
2022-12-14T00:50:14.786Z,72.22
2022-12-14T00:52:58.879Z,72.52
2022-12-14T00:55:44.562Z,73.80
2022-12-14T00:58:33.423Z,73.18
2022-12-14T01:01:19.337Z,73.43
2022-12-14T01:04:17.438Z,73.20
2022-12-14T01:07:01.504Z,72.76
2022-12-14T01:09:45.468Z,73.72
2022-12-14T01:12:29.381Z,74.14
2022-12-14T01:15:14.759Z,74.86
2022-12-14T01:18:00.153Z,73.75
2022-12-14T01:20:44.369Z,74.42
2022-12-14T01:23:28.785Z,73.17
2022-12-14T01:26:13.949Z,73.41
2022-12-14T01:28:59.838Z,73.32
2022-12-14T01:31:43.995Z,73.79
2022-12-14T01:34:34.236Z,74.13
2022-12-14T01:37:18.387Z,73.65
2022-12-14T01:40:02.305Z,73.05
2022-12-14T01:42:47.367Z,73.28
2022-12-14T01:45:31.701Z,73.54
2022-12-14T01:48:15.925Z,73.51
2022-12-14T01:51:01.276Z,72.58
2022-12-14T01:53:45.391Z,74.08
2022-12-14T01:56:31.421Z,73.19
2022-12-14T01:59:20.942Z,72.34
2022-12-14T02:02:08.597Z,70.99
2022-12-14T02:04:55.865Z,72.24
2022-12-14T02:07:43.631Z,71.27
2022-12-14T02:10:33.781Z,70.73
2022-12-14T02:13:22.948Z,71.22
2022-12-14T02:16:07.914Z,71.38
2022-12-14T02:18:52.239Z,70.87
2022-12-14T02:21:48.768Z,70.93
2022-12-14T02:25:09.631Z,70.43
2022-12-14T02:28:24.124Z,71.35
2022-12-14T02:31:17.476Z,70.83
2022-12-14T02:34:10.754Z,72.46
2022-12-14T02:37:00.357Z,71.78
2022-12-14T02:39:54.613Z,71.87
2022-12-14T02:42:47.190Z,73.06
2022-12-14T02:45:38.350Z,72.72
2022-12-14T02:48:27.337Z,72.94
2022-12-14T02:51:23.603Z,72.23
2022-12-14T02:54:13.614Z,72.48
2022-12-14T02:57:03.028Z,71.67
2022-12-14T02:59:51.250Z,71.64
2022-12-14T03:02:37.083Z,70.01
2022-12-14T03:05:22.872Z,69.21
2022-12-14T03:08:09.960Z,69.10
2022-12-14T03:10:58.655Z,68.41
2022-12-14T03:13:49.342Z,68.25
2022-12-14T03:16:42.909Z,68.66
2022-12-14T03:19:31.663Z,69.48
2022-12-14T03:22:21.763Z,70.54
2022-12-14T03:25:10.880Z,72.17
2022-12-14T03:28:00.770Z,71.93
2022-12-14T03:31:05.084Z,71.90
2022-12-14T03:33:53.078Z,71.27
2022-12-14T03:36:42.191Z,71.36
2022-12-14T03:39:32.052Z,71.12
2022-12-14T03:42:22.387Z,70.60
2022-12-14T03:45:15.889Z,70.66
2022-12-14T03:48:09.242Z,69.14
2022-12-14T03:51:00.543Z,69.67
2022-12-14T03:53:51.429Z,69.62
2022-12-14T03:56:44.013Z,70.47
2022-12-14T03:59:37.751Z,68.87
2022-12-14T04:02:26.826Z,68.88
2022-12-14T04:05:16.674Z,69.04
2022-12-14T04:08:07.677Z,68.84
2022-12-14T04:11:11.386Z,68.57
2022-12-14T04:14:18.625Z,68.45
2022-12-14T04:17:23.964Z,69.05
2022-12-14T04:20:12.690Z,69.17
2022-12-14T04:23:06.417Z,68.69
2022-12-14T04:26:05.216Z,67.95
2022-12-14T04:29:12.524Z,68.76
2022-12-14T04:32:04.295Z,68.75
2022-12-14T04:34:52.324Z,68.69
2022-12-14T04:37:39.499Z,68.60
2022-12-14T04:40:27.109Z,69.10
2022-12-14T04:43:14.665Z,69.92
2022-12-14T04:46:05.259Z,70.17
2022-12-14T04:49:00.222Z,69.92
2022-12-14T04:51:50.390Z,70.37
2022-12-14T04:54:42.595Z,70.76
2022-12-14T04:57:32.496Z,70.36
2022-12-14T05:00:17.065Z,70.50
2022-12-14T05:03:18.394Z,68.38
2022-12-14T05:06:11.918Z,68.79
2022-12-14T05:09:14.373Z,69.16
2022-12-14T05:12:06.158Z,69.18
2022-12-14T05:14:54.098Z,70.07
2022-12-14T05:17:38.911Z,70.92
2022-12-14T05:20:24.972Z,69.86
2022-12-14T05:23:10.422Z,69.84
2022-12-14T05:25:54.386Z,70.87
2022-12-14T05:28:38.298Z,71.11
2022-12-14T05:31:22.457Z,71.89
2022-12-14T05:34:06.540Z,71.85
2022-12-14T05:36:50.477Z,73.09
2022-12-14T05:39:35.787Z,71.79
2022-12-14T05:42:19.679Z,71.42
2022-12-14T05:45:03.651Z,70.89
2022-12-14T05:47:48.130Z,71.11
2022-12-14T05:50:32.390Z,71.84
2022-12-14T05:53:16.412Z,71.79
2022-12-14T05:56:01.787Z,71.83
2022-12-14T05:58:45.829Z,72.67
2022-12-14T06:01:29.907Z,73.14
2022-12-14T06:04:15.802Z,72.57
2022-12-14T06:06:59.786Z,72.83
2022-12-14T06:09:43.691Z,72.11
2022-12-14T06:12:29.176Z,71.56
2022-12-14T06:15:14.159Z,71.54
2022-12-14T06:17:58.280Z,71.42
2022-12-14T06:20:42.483Z,71.21
2022-12-14T06:23:26.606Z,71.95
2022-12-14T06:26:11.607Z,71.98
2022-12-14T06:28:57.982Z,72.24
2022-12-14T06:31:41.903Z,71.50
2022-12-14T06:34:28.649Z,71.45
2022-12-14T06:37:13.123Z,70.70
2022-12-14T06:39:57.143Z,71.97
2022-12-14T06:42:41.104Z,71.56
2022-12-14T06:45:26.478Z,71.26
2022-12-14T06:48:10.607Z,72.54
2022-12-14T06:51:00.835Z,72.45
2022-12-14T06:53:44.888Z,71.91
2022-12-14T06:56:29.271Z,72.19
2022-12-14T06:59:14.486Z,71.52
2022-12-14T07:02:00.055Z,71.34
2022-12-14T07:04:44.353Z,70.46
2022-12-14T07:07:28.468Z,72.01
2022-12-14T07:10:13.577Z,70.01
2022-12-14T07:12:57.599Z,69.90
2022-12-14T07:15:41.678Z,70.01
2022-12-14T07:18:28.148Z,68.92
2022-12-14T07:21:13.843Z,69.48
2022-12-14T07:24:00.843Z,68.87
2022-12-14T07:26:44.927Z,69.34
2022-12-14T07:29:34.306Z,69.30
2022-12-14T07:32:18.900Z,68.79
2022-12-14T07:35:04.548Z,68.02
2022-12-14T07:37:50.723Z,68.17
2022-12-14T07:40:35.102Z,68.27
2022-12-14T07:43:18.937Z,68.74
2022-12-14T07:46:04.156Z,68.88
2022-12-14T07:48:49.948Z,67.78
2022-12-14T07:51:37.648Z,67.27
2022-12-14T07:54:21.389Z,67.38
2022-12-14T07:57:05.455Z,66.64
2022-12-14T07:59:52.946Z,68.51
2022-12-14T08:02:41.062Z,68.14
2022-12-14T08:05:24.842Z,67.46
2022-12-14T08:08:09.923Z,66.90
2022-12-14T08:10:53.693Z,67.45
2022-12-14T08:13:38.886Z,66.65
2022-12-14T08:16:23.199Z,63.95
2022-12-14T08:19:07.050Z,64.96
2022-12-14T08:21:50.816Z,64.43
2022-12-14T08:24:35.946Z,64.98
2022-12-14T08:27:19.635Z,65.64
2022-12-14T08:30:03.380Z,64.94
2022-12-14T08:32:47.754Z,64.71
2022-12-14T08:35:33.661Z,63.97
2022-12-14T08:38:17.607Z,63.59
2022-12-14T08:41:05.172Z,63.96
2022-12-14T08:43:51.657Z,63.00
2022-12-14T08:46:37.673Z,63.06
2022-12-14T08:49:21.487Z,63.86
2022-12-14T08:52:05.306Z,63.35
2022-12-14T08:54:49.100Z,63.31
2022-12-14T08:57:34.250Z,63.58
2022-12-14T09:00:18.486Z,64.89
2022-12-14T09:03:02.409Z,64.23
2022-12-14T09:05:46.210Z,64.34
2022-12-14T09:08:29.987Z,63.99
2022-12-14T09:11:15.251Z,64.57
2022-12-14T09:14:00.340Z,64.35
2022-12-14T09:16:44.130Z,63.15
2022-12-14T09:19:28.365Z,64.26
2022-12-14T09:22:13.472Z,64.47
2022-12-14T09:24:57.255Z,64.56
2022-12-14T09:27:41.037Z,63.92
2022-12-14T09:30:27.119Z,62.95
2022-12-14T09:33:11.025Z,62.54
2022-12-14T09:35:56.040Z,63.77
2022-12-14T09:38:43.081Z,62.73
2022-12-14T09:41:50.923Z,62.57
2022-12-14T09:44:54.221Z,62.26
2022-12-14T09:47:44.687Z,63.82
2022-12-14T09:50:30.169Z,64.08
2022-12-14T09:53:16.565Z,63.88
2022-12-14T09:56:00.601Z,63.30
2022-12-14T09:58:53.131Z,63.58
2022-12-14T10:02:30.362Z,63.83
2022-12-14T10:05:24.951Z,65.00
2022-12-14T10:08:17.033Z,64.37
2022-12-14T10:11:07.481Z,64.05
2022-12-14T10:14:06.630Z,63.66
2022-12-14T10:17:02.151Z,64.87
2022-12-14T10:19:53.691Z,64.98
2022-12-14T10:22:43.966Z,63.50
2022-12-14T10:25:29.627Z,62.97
2022-12-14T10:28:18.707Z,62.49
2022-12-14T10:31:03.860Z,62.79
2022-12-14T10:33:48.357Z,61.44
2022-12-14T10:36:40.676Z,61.97
2022-12-14T10:39:41.138Z,61.82
2022-12-14T10:42:32.030Z,62.82
2022-12-14T10:45:42.492Z,63.08
2022-12-14T10:48:48.990Z,62.03
2022-12-14T10:51:38.387Z,62.10
2022-12-14T10:54:31.673Z,61.34
2022-12-14T10:57:19.197Z,62.10
2022-12-14T11:00:09.587Z,61.93
2022-12-14T11:02:57.240Z,61.65
2022-12-14T11:05:48.008Z,61.40
2022-12-14T11:08:44.045Z,60.26
2022-12-14T11:11:33.976Z,60.99
2022-12-14T11:14:23.540Z,61.03
2022-12-14T11:17:07.574Z,61.00
2022-12-14T11:20:05.691Z,61.09
2022-12-14T11:22:51.675Z,59.85
2022-12-14T11:25:39.438Z,59.93
2022-12-14T11:28:36.585Z,60.57
2022-12-14T11:31:25.240Z,61.11
2022-12-14T11:34:23.372Z,60.44
2022-12-14T11:37:15.838Z,61.20
2022-12-14T11:40:01.901Z,61.68
2022-12-14T11:42:52.500Z,61.27
2022-12-14T11:45:38.353Z,61.10
2022-12-14T11:48:24.646Z,61.17
2022-12-14T11:51:13.244Z,61.71
2022-12-14T11:54:04.229Z,61.55
2022-12-14T11:56:51.527Z,61.88
2022-12-14T11:59:40.811Z,60.51
2022-12-14T12:02:30.263Z,61.54
2022-12-14T12:05:16.641Z,61.32
2022-12-14T12:08:02.389Z,60.63
2022-12-14T12:10:49.581Z,58.90
2022-12-14T12:13:39.367Z,58.29
2022-12-14T12:16:24.769Z,58.53
2022-12-14T12:19:13.692Z,59.36
2022-12-14T12:22:01.252Z,58.88
2022-12-14T12:28:11.672Z,60.00
2022-12-14T12:31:00.697Z,60.57
2022-12-14T12:33:49.117Z,61.66
2022-12-14T12:36:34.904Z,61.85
2022-12-14T12:39:22.914Z,62.32
2022-12-14T12:42:19.348Z,62.50
2022-12-14T12:45:09.332Z,62.37
2022-12-14T12:47:57.841Z,62.31
2022-12-14T12:50:49.917Z,62.22
2022-12-14T12:53:40.024Z,62.97
2022-12-14T12:56:28.361Z,63.54
2022-12-14T12:59:18.719Z,63.45
2022-12-14T13:02:18.128Z,63.15
2022-12-14T13:05:29.069Z,62.98
2022-12-14T13:08:19.426Z,63.47
2022-12-14T13:11:27.869Z,64.17
2022-12-14T13:14:29.236Z,63.83
2022-12-14T13:17:26.428Z,63.59
2022-12-14T13:20:21.030Z,63.85
2022-12-14T13:23:44.440Z,63.49
2022-12-14T13:26:55.677Z,64.40
2022-12-14T13:29:41.011Z,64.73
2022-12-14T13:32:43.378Z,63.76
2022-12-14T13:39:10.061Z,64.85
2022-12-14T13:42:03.197Z,64.32
2022-12-14T13:44:57.187Z,64.62
2022-12-14T13:47:44.213Z,63.77
2022-12-14T13:50:37.031Z,64.14
2022-12-14T13:53:28.899Z,65.03
2022-12-14T13:56:20.754Z,64.57
2022-12-14T13:59:22.401Z,65.56
2022-12-14T14:02:07.910Z,65.63
2022-12-14T14:04:51.744Z,65.02
2022-12-14T14:07:52.096Z,65.33
2022-12-14T14:10:38.290Z,65.23
2022-12-14T14:14:05.485Z,66.32
2022-12-14T14:16:56.136Z,65.49
2022-12-14T14:19:42.781Z,66.30
2022-12-14T14:22:33.465Z,67.00
2022-12-14T14:25:40.164Z,67.72
2022-12-14T14:28:31.720Z,68.24
2022-12-14T14:31:16.120Z,67.26
2022-12-14T14:34:01.868Z,67.36
2022-12-14T14:36:46.792Z,67.46
2022-12-14T14:39:56.533Z,68.39
2022-12-14T14:42:51.453Z,68.77
2022-12-14T14:45:40.121Z,68.53
2022-12-14T14:48:33.605Z,68.24
2022-12-14T14:51:22.250Z,69.44
2022-12-14T14:57:55.853Z,69.21
2022-12-14T15:00:42.686Z,69.00
2022-12-14T15:03:34.961Z,69.48
2022-12-14T15:06:24.459Z,68.84
2022-12-14T15:09:20.502Z,69.23
2022-12-14T15:12:20.284Z,69.30
2022-12-14T15:15:08.259Z,69.87
2022-12-14T15:17:52.504Z,69.71
2022-12-14T15:20:37.135Z,69.83
2022-12-14T15:23:23.298Z,69.19
2022-12-14T15:26:17.226Z,69.76
2022-12-14T15:29:04.714Z,69.37
2022-12-14T15:31:58.931Z,69.77
2022-12-14T15:34:53.363Z,69.16
2022-12-14T15:37:46.253Z,69.19
2022-12-14T15:40:32.687Z,69.59
2022-12-14T15:43:21.547Z,69.85
2022-12-14T15:46:17.163Z,69.19
2022-12-14T15:49:06.101Z,69.36
2022-12-14T15:52:12.576Z,70.53
2022-12-14T15:55:26.713Z,69.19
2022-12-14T15:58:20.743Z,70.34
2022-12-14T16:01:13.900Z,70.39
2022-12-14T16:04:05.674Z,70.81
2022-12-14T16:06:57.043Z,71.02
2022-12-14T16:09:44.609Z,71.05
2022-12-14T16:12:45.479Z,68.87
2022-12-14T16:15:32.559Z,69.41
2022-12-14T16:18:19.493Z,68.64
2022-12-14T16:21:06.268Z,69.76
2022-12-14T16:23:52.343Z,71.56
2022-12-14T16:26:39.180Z,72.74
2022-12-14T16:29:27.989Z,71.56
2022-12-14T16:32:17.858Z,71.68
2022-12-14T16:35:02.778Z,70.76
2022-12-14T16:37:53.395Z,71.29
2022-12-14T16:40:43.196Z,71.42
2022-12-14T16:43:34.072Z,71.70
2022-12-14T16:46:20.337Z,72.65
2022-12-14T16:49:33.225Z,71.05
2022-12-14T16:52:20.357Z,71.60
2022-12-14T16:55:11.994Z,71.86
2022-12-14T16:57:59.865Z,72.23
2022-12-14T17:00:57.614Z,71.52
2022-12-14T17:03:43.762Z,72.02
2022-12-14T17:06:41.018Z,71.84
2022-12-14T17:09:27.840Z,72.19
2022-12-14T17:12:15.706Z,73.25
2022-12-14T17:15:00.230Z,72.85
2022-12-14T17:17:49.296Z,73.52
2022-12-14T17:20:39.357Z,73.82
2022-12-14T17:23:25.677Z,73.79
2022-12-14T17:26:19.202Z,73.36
2022-12-14T17:29:03.689Z,73.79
2022-12-14T17:31:49.974Z,73.96
2022-12-14T17:34:34.498Z,73.96
2022-12-14T17:37:20.698Z,74.96
2022-12-14T17:40:08.423Z,75.14
2022-12-14T17:42:54.644Z,74.76
2022-12-14T17:45:38.666Z,75.82
2022-12-14T17:48:22.937Z,75.21
2022-12-14T17:51:07.467Z,76.45
2022-12-14T17:53:51.756Z,76.08
2022-12-14T17:56:37.291Z,76.48
2022-12-14T17:59:21.301Z,76.53
2022-12-14T18:02:05.398Z,76.81
2022-12-14T18:04:49.543Z,76.63
2022-12-14T18:07:33.924Z,76.32
2022-12-14T18:10:21.213Z,76.12
2022-12-14T18:13:06.944Z,74.41
2022-12-14T18:15:52.590Z,72.95
2022-12-14T18:18:40.799Z,73.08
2022-12-14T18:21:27.006Z,73.51
2022-12-14T18:24:15.554Z,73.00
2022-12-14T18:26:59.771Z,73.63
2022-12-14T18:29:45.424Z,73.79
2022-12-14T18:32:29.511Z,74.28
2022-12-14T18:35:18.734Z,73.77
2022-12-14T18:38:03.972Z,74.64
2022-12-14T18:40:50.231Z,74.06
2022-12-14T18:43:38.850Z,73.69
2022-12-14T18:46:28.159Z,74.12
2022-12-14T18:49:12.544Z,72.49
2022-12-14T18:51:56.700Z,72.58
2022-12-14T18:54:41.265Z,73.20
2022-12-14T18:57:25.537Z,73.28
2022-12-14T19:00:13.255Z,72.29
2022-12-14T19:03:01.391Z,71.02
2022-12-14T19:05:46.838Z,71.45
2022-12-14T19:08:31.256Z,70.86
2022-12-14T19:11:26.637Z,69.89
2022-12-14T19:14:11.345Z,70.26
2022-12-14T19:16:58.136Z,69.89
2022-12-14T19:19:44.672Z,70.29
2022-12-14T19:22:29.641Z,71.39
2022-12-14T19:25:20.204Z,71.36
2022-12-14T19:28:30.912Z,72.33
2022-12-14T19:31:11.301Z,72.58
2022-12-14T19:33:56.067Z,72.39
2022-12-14T19:36:41.723Z,72.23
2022-12-14T19:39:26.003Z,72.51
2022-12-14T19:42:10.169Z,72.76
2022-12-14T19:44:54.253Z,73.41
2022-12-14T19:47:38.470Z,72.68
2022-12-14T19:50:22.810Z,73.15
2022-12-14T19:53:08.468Z,73.55
2022-12-14T19:55:53.895Z,72.63
2022-12-14T19:58:38.981Z,72.93
2022-12-14T20:01:23.399Z,72.81
2022-12-14T20:04:08.609Z,72.91
2022-12-14T20:06:52.815Z,72.74
2022-12-14T20:09:38.739Z,72.92
2022-12-14T20:12:23.011Z,72.90
2022-12-14T20:15:07.939Z,71.74
2022-12-14T20:17:52.203Z,72.33
2022-12-14T20:20:36.299Z,73.16
2022-12-14T20:23:21.923Z,72.24
2022-12-14T20:26:09.600Z,71.41
2022-12-14T20:28:58.082Z,72.04
2022-12-14T20:31:42.513Z,71.61
2022-12-14T20:34:29.667Z,71.44
2022-12-14T20:37:14.178Z,72.10
2022-12-14T20:40:00.888Z,72.25
2022-12-14T20:42:49.139Z,71.95
2022-12-14T20:45:33.570Z,71.16
2022-12-14T20:48:17.783Z,71.34
2022-12-14T20:51:04.182Z,71.38
2022-12-14T20:53:49.216Z,71.08
2022-12-14T20:56:34.444Z,72.09
2022-12-14T20:59:20.282Z,72.18
2022-12-14T21:02:04.586Z,71.63
2022-12-14T21:04:48.605Z,72.21
2022-12-14T21:07:33.513Z,71.54
2022-12-14T21:10:17.439Z,72.00
2022-12-14T21:13:07.241Z,72.65
2022-12-14T21:15:52.932Z,73.30
2022-12-14T21:18:36.919Z,74.28
2022-12-14T21:21:20.849Z,72.82
2022-12-14T21:24:05.174Z,73.39
2022-12-14T21:26:49.135Z,73.62
2022-12-14T21:29:33.321Z,72.84
2022-12-14T21:32:19.457Z,73.01
2022-12-14T21:35:03.434Z,73.55
2022-12-14T21:37:47.436Z,72.79
2022-12-14T21:40:48.950Z,72.23
2022-12-14T21:43:33.154Z,71.74
2022-12-14T21:46:17.173Z,72.39
2022-12-14T21:49:02.343Z,72.15
2022-12-14T21:51:46.114Z,71.19
2022-12-14T21:54:33.565Z,72.04
2022-12-14T21:57:35.801Z,71.47
2022-12-14T22:00:20.564Z,72.16
2022-12-14T22:03:04.514Z,71.79
2022-12-14T22:05:49.619Z,71.19
2022-12-14T22:08:33.520Z,71.24
2022-12-14T22:11:17.345Z,72.22
2022-12-14T22:14:02.949Z,71.89
2022-12-14T22:16:47.016Z,71.97
2022-12-14T22:19:31.030Z,72.41
2022-12-14T22:22:18.052Z,72.84
2022-12-14T22:25:02.099Z,71.62
2022-12-14T22:27:49.769Z,71.25
2022-12-14T22:30:34.038Z,71.79
2022-12-14T22:33:17.784Z,72.17
2022-12-14T22:36:01.720Z,72.45
2022-12-14T22:38:46.957Z,71.94
2022-12-14T22:41:30.767Z,72.67
2022-12-14T22:44:14.573Z,71.98
2022-12-14T22:46:58.303Z,72.54
2022-12-14T22:49:42.095Z,72.21
2022-12-14T22:52:25.898Z,72.83
2022-12-14T22:55:11.986Z,72.08
2022-12-14T22:57:56.720Z,73.17
2022-12-14T23:00:40.692Z,73.53
2022-12-14T23:03:25.614Z,72.83
2022-12-14T23:06:15.619Z,72.84
2022-12-14T23:09:17.029Z,73.54
2022-12-14T23:12:21.911Z,73.20
2022-12-14T23:15:24.932Z,73.15
2022-12-14T23:18:27.079Z,73.21
2022-12-14T23:21:29.057Z,72.95
2022-12-14T23:24:30.679Z,72.49
2022-12-14T23:27:33.327Z,74.64
2022-12-14T23:30:34.720Z,73.47
2022-12-14T23:33:36.315Z,73.54
2022-12-14T23:36:37.344Z,74.62
2022-12-14T23:39:38.688Z,74.50
2022-12-14T23:42:41.146Z,75.35
2022-12-14T23:45:42.482Z,74.28
2022-12-14T23:48:43.333Z,75.29
2022-12-14T23:51:44.515Z,74.87
2022-12-14T23:54:45.777Z,75.73
2022-12-14T23:57:48.382Z,77.50
